createdAt,value
2022-10-22T00:02:08.285Z,3.53
2022-10-22T00:04:36.709Z,1.77
2022-10-22T00:07:07.465Z,1.05
2022-10-22T00:09:35.777Z,1.35
2022-10-22T00:12:04.215Z,1.27
2022-10-22T00:14:32.476Z,2.15
2022-10-22T00:17:02.105Z,3.03
2022-10-22T00:19:31.746Z,1.95
2022-10-22T00:22:00.003Z,2.10
2022-10-22T00:24:28.368Z,3.22
2022-10-22T00:26:56.623Z,3.20
2022-10-22T00:29:24.927Z,1.50
2022-10-22T00:31:53.205Z,2.53
2022-10-22T00:34:25.789Z,1.20
2022-10-22T00:36:54.061Z,2.33
2022-10-22T00:39:26.128Z,1.13
2022-10-22T00:41:57.928Z,2.20
2022-10-22T00:45:03.487Z,3.00
2022-10-22T00:47:34.913Z,1.90
2022-10-22T00:52:50.417Z,1.27
2022-10-22T00:55:18.937Z,3.15
2022-10-22T00:57:47.235Z,1.88
2022-10-22T01:00:18.670Z,0.57
2022-10-22T01:02:50.122Z,1.38
2022-10-22T01:05:19.745Z,2.75
2022-10-22T01:07:49.475Z,2.60
2022-10-22T01:10:30.541Z,1.98
2022-10-22T01:13:06.642Z,1.50
2022-10-22T01:15:37.218Z,2.03
2022-10-22T01:18:07.660Z,1.45
2022-10-22T01:20:50.954Z,1.00
2022-10-22T01:23:33.772Z,1.30
2022-10-22T01:26:06.261Z,1.35
2022-10-22T01:28:54.189Z,1.48
2022-10-22T01:31:22.647Z,2.72
2022-10-22T01:33:54.162Z,1.80
2022-10-22T01:36:28.626Z,1.58
2022-10-22T01:38:59.573Z,1.70
2022-10-22T01:41:28.582Z,0.95
2022-10-22T01:44:01.070Z,1.55
2022-10-22T01:46:31.535Z,7.25
2022-10-22T01:49:11.900Z,1.45
2022-10-22T01:51:46.726Z,1.95
2022-10-22T01:54:21.972Z,0.80
2022-10-22T01:56:55.839Z,1.02
2022-10-22T01:59:32.896Z,1.80
2022-10-22T02:04:32.343Z,2.55
2022-10-22T02:07:02.273Z,0.95
2022-10-22T02:09:30.715Z,1.15
2022-10-22T02:11:59.713Z,1.58
2022-10-22T02:14:29.644Z,1.08
2022-10-22T02:16:57.954Z,3.22
2022-10-22T02:19:31.300Z,2.63
2022-10-22T02:21:59.598Z,3.10
2022-10-22T02:24:27.915Z,2.55
2022-10-22T02:26:59.591Z,1.70
2022-10-22T02:29:33.747Z,2.65
2022-10-22T02:32:02.086Z,2.58
2022-10-22T02:34:32.051Z,3.03
2022-10-22T02:37:00.606Z,1.00
2022-10-22T02:39:30.303Z,1.15
2022-10-22T02:41:59.469Z,2.38
2022-10-22T02:44:29.116Z,0.75
2022-10-22T02:47:02.127Z,1.15
2022-10-22T02:49:33.643Z,1.38
2022-10-22T02:52:01.923Z,1.73
2022-10-22T02:54:30.189Z,1.38
2022-10-22T02:56:58.463Z,4.07
2022-10-22T02:59:26.719Z,1.67
2022-10-22T03:01:56.328Z,0.82
2022-10-22T03:04:24.679Z,1.58
2022-10-22T03:06:52.935Z,1.50
2022-10-22T03:09:24.021Z,1.75
2022-10-22T03:11:53.201Z,1.42
2022-10-22T03:14:21.600Z,2.22
2022-10-22T03:16:49.844Z,1.35
2022-10-22T03:19:19.604Z,1.38
2022-10-22T03:21:50.056Z,0.80
2022-10-22T03:24:22.723Z,2.58
2022-10-22T03:26:51.526Z,2.67
2022-10-22T03:29:19.895Z,1.65
2022-10-22T03:31:53.026Z,0.93
2022-10-22T03:34:22.616Z,2.13
2022-10-22T03:36:50.909Z,3.13
2022-10-22T03:39:19.198Z,1.05
2022-10-22T03:41:47.594Z,1.60
2022-10-22T03:44:18.682Z,3.83
2022-10-22T03:46:46.922Z,1.10
2022-10-22T03:49:15.192Z,3.40
2022-10-22T03:51:44.786Z,1.05
2022-10-22T03:54:16.228Z,2.17
2022-10-22T03:56:44.511Z,1.15
2022-10-22T03:59:25.886Z,1.90
2022-10-22T04:01:54.144Z,3.92
2022-10-22T04:04:22.396Z,1.40
2022-10-22T04:06:51.995Z,1.52
2022-10-22T04:09:20.244Z,1.88
2022-10-22T04:11:48.500Z,1.13
2022-10-22T04:14:16.750Z,1.55
2022-10-22T04:16:47.491Z,2.67
2022-10-22T04:19:15.730Z,1.27
2022-10-22T04:21:44.103Z,3.83
2022-10-22T04:24:13.708Z,1.10
2022-10-22T04:26:41.954Z,1.63
2022-10-22T04:29:13.431Z,1.00
2022-10-22T04:31:44.320Z,2.38
2022-10-22T04:34:12.584Z,1.77
2022-10-22T04:36:40.819Z,0.85
2022-10-22T04:39:09.085Z,1.15
2022-10-22T04:41:42.514Z,1.10
2022-10-22T04:44:13.639Z,2.63
2022-10-22T04:46:50.713Z,1.58
2022-10-22T04:49:21.558Z,2.72
2022-10-22T04:51:49.810Z,1.08
2022-10-22T04:54:18.122Z,1.60
2022-10-22T04:57:02.618Z,1.15
2022-10-22T04:59:30.870Z,2.72
2022-10-22T05:01:59.127Z,2.08
2022-10-22T05:04:33.370Z,1.80
2022-10-22T05:07:01.797Z,1.52
2022-10-22T05:09:30.072Z,2.28
2022-10-22T05:11:59.696Z,1.33
2022-10-22T05:14:28.152Z,2.88
2022-10-22T05:16:56.435Z,0.98
2022-10-22T05:19:25.899Z,1.27
2022-10-22T05:21:54.410Z,3.50
2022-10-22T05:24:22.810Z,2.30
2022-10-22T05:26:51.543Z,2.00
2022-10-22T05:29:21.242Z,1.75
2022-10-22T05:31:49.694Z,0.88
2022-10-22T05:34:18.018Z,3.55
2022-10-22T05:36:46.307Z,1.58
2022-10-22T05:39:14.589Z,2.08
2022-10-22T05:41:42.867Z,2.70
2022-10-22T05:44:12.166Z,3.92
2022-10-22T05:46:43.241Z,2.95
2022-10-22T05:49:13.258Z,2.28
2022-10-22T05:51:41.513Z,2.40
2022-10-22T05:54:10.968Z,1.70
2022-10-22T05:56:39.695Z,1.77
2022-10-22T05:59:07.986Z,3.17
2022-10-22T06:01:36.323Z,1.73
2022-10-22T06:04:07.274Z,2.90
2022-10-22T06:06:37.396Z,2.85
2022-10-22T06:09:07.179Z,0.90
2022-10-22T06:11:35.551Z,1.60
2022-10-22T06:14:03.963Z,2.33
2022-10-22T06:16:32.459Z,4.15
2022-10-22T06:19:00.902Z,1.08
2022-10-22T06:21:30.634Z,2.45
2022-10-22T06:23:59.068Z,0.70
2022-10-22T06:26:27.485Z,7.55
2022-10-22T06:28:56.091Z,1.15
2022-10-22T06:31:24.515Z,2.08
2022-10-22T06:33:52.764Z,2.17
2022-10-22T06:36:21.906Z,1.08
2022-10-22T06:38:53.695Z,8.35
2022-10-22T06:41:24.301Z,2.08
2022-10-22T06:43:55.671Z,3.28
2022-10-22T06:46:24.183Z,1.40
2022-10-22T06:48:58.832Z,1.50
2022-10-22T06:51:27.777Z,2.20
2022-10-22T06:53:57.671Z,1.73
2022-10-22T06:56:29.759Z,2.50
2022-10-22T06:58:58.531Z,2.33
2022-10-22T07:01:27.945Z,2.50
2022-10-22T07:04:01.748Z,3.80
2022-10-22T07:06:30.271Z,1.35
2022-10-22T07:09:00.441Z,3.28
2022-10-22T07:11:29.576Z,2.33
2022-10-22T07:13:58.701Z,1.30
2022-10-22T07:16:31.125Z,1.85
2022-10-22T07:19:00.535Z,1.42
2022-10-22T07:21:28.890Z,1.42
2022-10-22T07:23:57.514Z,2.10
2022-10-22T07:26:28.433Z,0.70
2022-10-22T07:28:56.812Z,1.42
2022-10-22T07:31:25.137Z,0.80
2022-10-22T07:33:53.426Z,2.25
2022-10-22T07:36:21.716Z,1.48
2022-10-22T07:38:50.749Z,1.20
2022-10-22T07:41:21.755Z,1.52
2022-10-22T07:43:51.372Z,1.08
2022-10-22T07:46:19.649Z,3.28
2022-10-22T07:48:47.992Z,3.90
2022-10-22T07:51:16.302Z,2.97
2022-10-22T07:53:44.618Z,1.98
2022-10-22T07:56:13.838Z,1.67
2022-10-22T07:58:42.119Z,1.08
2022-10-22T08:01:11.758Z,2.30
2022-10-22T08:03:40.048Z,2.90
2022-10-22T08:06:08.852Z,1.05
2022-10-22T08:08:37.238Z,2.63
2022-10-22T08:11:05.603Z,2.70
2022-10-22T08:13:38.004Z,1.48
2022-10-22T08:16:08.003Z,1.50
2022-10-22T08:18:38.557Z,4.32
2022-10-22T08:21:07.139Z,0.85
2022-10-22T08:23:38.584Z,1.88
2022-10-22T08:26:09.308Z,1.02
2022-10-22T08:28:43.442Z,6.00
2022-10-22T08:31:11.698Z,1.77
2022-10-22T08:33:41.968Z,6.50
2022-10-22T08:36:10.704Z,8.60
2022-10-22T08:38:38.970Z,7.68
2022-10-22T08:41:11.391Z,1.85
2022-10-22T08:44:00.672Z,8.60
2022-10-22T08:46:53.863Z,8.85
2022-10-22T08:49:28.342Z,5.97
2022-10-22T08:51:56.654Z,5.93
2022-10-22T08:54:29.376Z,5.72
2022-10-22T08:57:05.897Z,7.43
2022-10-22T08:59:41.838Z,2.85
2022-10-22T09:02:19.114Z,5.35
2022-10-22T09:04:50.819Z,8.45
2022-10-22T09:07:19.078Z,6.40
2022-10-22T09:09:50.147Z,8.82
2022-10-22T09:12:20.289Z,6.38
2022-10-22T09:14:48.918Z,11.05
2022-10-22T09:17:20.415Z,10.05
2022-10-22T09:19:56.590Z,14.35
2022-10-22T09:22:30.319Z,18.23
2022-10-22T09:24:59.799Z,14.90
2022-10-22T09:27:29.411Z,11.20
2022-10-22T09:29:57.718Z,11.38
2022-10-22T09:32:26.462Z,17.52
2022-10-22T09:34:58.168Z,10.70
2022-10-22T09:37:27.355Z,16.63
2022-10-22T09:39:56.104Z,12.65
2022-10-22T09:42:24.489Z,13.73
2022-10-22T09:44:54.017Z,13.95
2022-10-22T09:47:43.503Z,19.27
2022-10-22T09:50:28.797Z,11.32
2022-10-22T09:53:01.782Z,17.45
2022-10-22T09:55:31.209Z,11.50
2022-10-22T09:58:01.721Z,7.40
2022-10-22T10:00:30.765Z,8.75
2022-10-22T10:02:59.989Z,9.85
2022-10-22T10:05:32.622Z,7.43
2022-10-22T10:08:04.113Z,9.15
2022-10-22T10:10:36.177Z,5.65
2022-10-22T10:13:23.754Z,7.43
2022-10-22T10:18:41.277Z,5.88
2022-10-22T10:23:53.755Z,6.43
2022-10-22T10:26:25.005Z,9.68
2022-10-22T10:29:00.154Z,7.32
2022-10-22T10:31:35.493Z,8.88
2022-10-22T10:34:11.292Z,20.73
2022-10-22T10:36:43.739Z,6.90
2022-10-22T10:39:14.128Z,5.43
2022-10-22T10:41:52.400Z,5.20
2022-10-22T10:44:56.340Z,5.78
2022-10-22T10:47:36.178Z,6.20
2022-10-22T10:50:17.240Z,4.55
2022-10-22T10:52:50.975Z,10.60
2022-10-22T10:55:23.139Z,5.53
2022-10-22T10:58:02.690Z,8.27
2022-10-22T11:00:31.506Z,4.20
2022-10-22T11:03:32.571Z,5.88
2022-10-22T11:06:01.229Z,8.20
2022-10-22T11:08:31.711Z,4.35
2022-10-22T11:11:01.337Z,8.30
2022-10-22T11:13:32.444Z,8.15
2022-10-22T11:16:04.303Z,7.60
2022-10-22T11:18:35.408Z,5.35
2022-10-22T11:21:12.295Z,8.05
2022-10-22T11:23:44.957Z,5.25
2022-10-22T11:26:16.342Z,7.47
2022-10-22T11:28:46.822Z,7.05
2022-10-22T11:31:16.759Z,10.93
2022-10-22T11:33:49.622Z,6.97
2022-10-22T11:36:24.302Z,5.28
2022-10-22T11:38:54.372Z,10.52
2022-10-22T11:41:25.111Z,8.90
2022-10-22T11:43:57.563Z,6.13
2022-10-22T11:46:29.635Z,7.97
2022-10-22T11:49:06.445Z,5.22
2022-10-22T11:51:35.406Z,5.43
2022-10-22T11:54:24.490Z,9.70
2022-10-22T11:56:59.530Z,7.55
2022-10-22T11:59:41.585Z,13.82
2022-10-22T12:02:27.585Z,6.93
2022-10-22T12:04:56.594Z,6.57
2022-10-22T12:07:35.339Z,9.10
2022-10-22T12:10:14.942Z,13.18
2022-10-22T12:12:45.887Z,6.38
2022-10-22T12:15:23.525Z,7.32
2022-10-22T12:17:51.899Z,9.60
2022-10-22T12:20:20.190Z,5.53
2022-10-22T12:22:48.463Z,7.35
2022-10-22T12:25:22.970Z,11.90
2022-10-22T12:27:54.927Z,9.23
2022-10-22T12:30:24.416Z,10.88
2022-10-22T12:32:53.630Z,8.13
2022-10-22T12:35:26.089Z,9.07
2022-10-22T12:37:56.539Z,8.80
2022-10-22T12:40:27.110Z,13.98
2022-10-22T12:42:56.408Z,12.30
2022-10-22T12:45:26.801Z,8.77
2022-10-22T12:48:00.604Z,10.30
2022-10-22T12:50:32.899Z,7.47
2022-10-22T12:53:03.764Z,8.98
2022-10-22T12:55:41.742Z,7.63
2022-10-22T12:58:13.025Z,8.93
2022-10-22T13:00:41.533Z,9.98
2022-10-22T13:03:11.867Z,8.82
2022-10-22T13:05:42.236Z,5.32
2022-10-22T13:08:11.240Z,12.45
2022-10-22T13:10:41.739Z,10.80
2022-10-22T13:13:33.938Z,9.73
2022-10-22T13:16:18.040Z,7.75
2022-10-22T13:18:46.440Z,6.50
2022-10-22T13:21:38.808Z,4.97
2022-10-22T13:24:22.966Z,11.13
2022-10-22T13:26:54.054Z,9.35
2022-10-22T13:29:22.939Z,6.82
2022-10-22T13:31:51.844Z,7.95
2022-10-22T13:34:21.817Z,5.45
2022-10-22T13:36:50.380Z,6.55
2022-10-22T13:39:21.817Z,6.22
2022-10-22T13:41:51.070Z,9.00
2022-10-22T13:44:20.716Z,5.03
2022-10-22T13:46:49.091Z,5.22
2022-10-22T13:49:19.197Z,4.65
2022-10-22T13:51:47.493Z,9.32
2022-10-22T13:54:17.230Z,5.68
2022-10-22T13:56:45.569Z,7.30
2022-10-22T13:59:15.339Z,8.32
2022-10-22T14:01:46.940Z,8.40
2022-10-22T14:04:15.613Z,5.10
2022-10-22T14:06:43.870Z,6.13
2022-10-22T14:09:16.123Z,8.85
2022-10-22T14:11:44.462Z,6.60
2022-10-22T14:14:16.974Z,4.75
2022-10-22T14:16:46.685Z,5.88
2022-10-22T14:19:16.237Z,8.02
2022-10-22T14:21:44.525Z,7.93
2022-10-22T14:24:13.450Z,6.95
2022-10-22T14:26:42.004Z,6.25
2022-10-22T14:29:16.042Z,6.90
2022-10-22T14:31:45.824Z,3.78
2022-10-22T14:34:14.818Z,5.45
2022-10-22T14:36:45.619Z,6.38
2022-10-22T14:39:13.979Z,10.90
2022-10-22T14:41:42.273Z,7.30
2022-10-22T14:44:12.631Z,5.72
2022-10-22T14:46:44.190Z,5.60
2022-10-22T14:49:16.951Z,9.07
2022-10-22T14:51:45.200Z,5.25
2022-10-22T14:54:17.557Z,7.78
2022-10-22T14:56:49.805Z,5.50
2022-10-22T14:59:18.081Z,10.07
2022-10-22T15:01:46.350Z,4.75
2022-10-22T15:04:15.934Z,7.57
2022-10-22T15:06:44.181Z,6.68
2022-10-22T15:09:12.465Z,3.40
2022-10-22T15:11:42.547Z,5.82
2022-10-22T15:14:10.860Z,6.28
2022-10-22T15:16:39.126Z,6.57
2022-10-22T15:19:07.407Z,5.13
2022-10-22T15:24:10.934Z,5.53
2022-10-22T15:26:39.304Z,5.50
2022-10-22T15:29:10.231Z,8.68
2022-10-22T15:31:48.883Z,5.53
2022-10-22T15:34:31.263Z,4.70
2022-10-22T15:37:01.752Z,6.63
2022-10-22T15:39:30.113Z,3.92
2022-10-22T15:42:01.128Z,4.93
2022-10-22T15:44:30.728Z,6.38
2022-10-22T15:46:59.079Z,5.25
2022-10-22T15:49:28.276Z,6.13
2022-10-22T15:51:56.588Z,6.38
2022-10-22T15:54:28.069Z,6.07
2022-10-22T15:56:59.228Z,4.57
2022-10-22T15:59:27.497Z,3.40
2022-10-22T16:01:58.872Z,3.60
2022-10-22T16:04:27.132Z,4.47
2022-10-22T16:06:55.509Z,5.47
2022-10-22T16:09:27.114Z,6.72
2022-10-22T16:11:55.532Z,3.63
2022-10-22T16:14:24.341Z,3.63
2022-10-22T16:16:53.658Z,4.18
2022-10-22T16:19:22.843Z,8.00
2022-10-22T16:21:51.755Z,8.65
2022-10-22T16:24:20.418Z,6.50
2022-10-22T16:26:50.174Z,5.55
2022-10-22T16:29:18.467Z,3.88
2022-10-22T16:31:46.775Z,4.55
2022-10-22T16:34:15.049Z,2.85
2022-10-22T16:36:44.120Z,4.90
2022-10-22T16:39:15.089Z,4.50
2022-10-22T16:41:43.373Z,7.32
2022-10-22T16:44:13.316Z,3.83
2022-10-22T16:46:41.570Z,4.43
2022-10-22T16:49:10.081Z,3.00
2022-10-22T16:51:38.426Z,4.82
2022-10-22T16:54:11.499Z,6.80
2022-10-22T16:56:41.065Z,3.22
2022-10-22T16:59:09.354Z,2.97
2022-10-22T17:01:41.148Z,4.10
2022-10-22T17:04:12.811Z,3.70
2022-10-22T17:06:41.076Z,3.83
2022-10-22T17:09:12.407Z,3.38
2022-10-22T17:11:44.893Z,5.18
2022-10-22T17:14:13.429Z,3.03
2022-10-22T17:16:43.122Z,4.10
2022-10-22T17:19:13.985Z,6.85
2022-10-22T17:21:44.151Z,5.40
2022-10-22T17:24:12.570Z,3.13
2022-10-22T17:26:43.637Z,2.80
2022-10-22T17:29:11.925Z,3.72
2022-10-22T17:31:40.295Z,3.50
2022-10-22T17:34:11.203Z,3.83
2022-10-22T17:36:39.690Z,5.32
2022-10-22T17:39:08.547Z,3.38
2022-10-22T17:41:37.565Z,3.70
2022-10-22T17:44:08.695Z,3.75
2022-10-22T17:46:37.021Z,3.97
2022-10-22T17:49:06.851Z,2.80
2022-10-22T17:51:37.595Z,3.58
2022-10-22T17:54:08.858Z,6.10
2022-10-22T17:56:39.999Z,2.90
2022-10-22T17:59:08.471Z,5.00
2022-10-22T18:01:38.681Z,4.13
2022-10-22T18:04:10.804Z,6.93
2022-10-22T18:06:40.437Z,4.07
2022-10-22T18:09:09.582Z,3.72
2022-10-22T18:11:39.052Z,1.90
2022-10-22T18:14:08.207Z,2.55
2022-10-22T18:16:38.642Z,3.92
2022-10-22T18:19:07.151Z,3.25
2022-10-22T18:21:35.437Z,4.60
2022-10-22T18:24:05.482Z,4.07
2022-10-22T18:26:33.803Z,5.40
2022-10-22T18:29:04.538Z,4.05
2022-10-22T18:31:32.876Z,3.95
2022-10-22T18:34:03.989Z,4.88
2022-10-22T18:36:32.389Z,5.07
2022-10-22T18:39:01.265Z,3.13
2022-10-22T18:41:31.463Z,3.72
2022-10-22T18:44:04.321Z,6.57
2022-10-22T18:46:34.596Z,5.32
2022-10-22T18:49:02.900Z,5.05
2022-10-22T18:51:31.616Z,3.97
2022-10-22T18:54:11.291Z,5.03
2022-10-22T18:56:52.312Z,7.03
2022-10-22T18:59:22.975Z,4.43
2022-10-22T19:01:52.427Z,5.35
2022-10-22T19:04:20.801Z,4.43
2022-10-22T19:06:49.157Z,3.22
2022-10-22T19:09:17.548Z,7.78
2022-10-22T19:11:46.144Z,4.30
2022-10-22T19:14:19.257Z,3.65
2022-10-22T19:16:56.681Z,5.05
2022-10-22T19:19:24.945Z,4.32
2022-10-22T19:21:53.346Z,4.55
2022-10-22T19:24:21.625Z,3.03
2022-10-22T19:26:50.230Z,4.15
2022-10-22T19:29:20.484Z,3.53
2022-10-22T19:31:50.837Z,3.08
2022-10-22T19:34:22.813Z,2.88
2022-10-22T19:36:52.023Z,3.63
2022-10-22T19:39:20.370Z,3.90
2022-10-22T19:41:54.835Z,3.47
2022-10-22T19:44:24.439Z,3.80
2022-10-22T19:46:52.741Z,3.60
2022-10-22T19:49:22.911Z,4.15
2022-10-22T19:51:51.430Z,4.47
2022-10-22T19:54:20.371Z,3.28
2022-10-22T19:56:48.850Z,5.35
2022-10-22T19:59:17.257Z,2.92
2022-10-22T20:01:46.939Z,6.00
2022-10-22T20:04:15.978Z,5.85
2022-10-22T20:06:44.364Z,5.18
2022-10-22T20:09:15.507Z,3.30
2022-10-22T20:11:44.216Z,3.80
2022-10-22T20:14:12.502Z,3.50
2022-10-22T20:16:43.489Z,4.50
2022-10-22T20:19:16.096Z,2.83
2022-10-22T20:21:45.078Z,3.88
2022-10-22T20:24:13.474Z,4.30
2022-10-22T20:26:45.573Z,2.88
2022-10-22T20:29:14.722Z,4.13
2022-10-22T20:31:42.990Z,4.28
2022-10-22T20:34:12.697Z,3.65
2022-10-22T20:36:41.011Z,4.95
2022-10-22T20:39:11.355Z,3.33
2022-10-22T20:41:40.518Z,3.95
2022-10-22T20:44:09.249Z,3.22
2022-10-22T20:46:37.510Z,3.90
2022-10-22T20:49:06.603Z,4.47
2022-10-22T20:51:37.923Z,5.00
2022-10-22T20:54:07.252Z,2.75
2022-10-22T20:56:35.730Z,5.22
2022-10-22T20:59:08.272Z,4.40
2022-10-22T21:01:40.530Z,3.05
2022-10-22T21:04:08.806Z,2.38
2022-10-22T21:06:40.212Z,4.32
2022-10-22T21:09:09.079Z,3.75
2022-10-22T21:11:37.587Z,4.68
2022-10-22T21:14:06.036Z,3.97
2022-10-22T21:16:40.282Z,4.05
2022-10-22T21:19:08.539Z,3.20
2022-10-22T21:21:38.349Z,3.65
2022-10-22T21:24:10.632Z,2.65
2022-10-22T21:26:39.173Z,2.20
2022-10-22T21:29:07.487Z,4.70
2022-10-22T21:31:35.847Z,2.35
2022-10-22T21:34:04.107Z,3.38
2022-10-22T21:36:32.360Z,3.40
2022-10-22T21:39:02.016Z,2.55
2022-10-22T21:41:30.357Z,3.40
2022-10-22T21:43:58.623Z,2.78
2022-10-22T21:46:28.041Z,12.05
2022-10-22T21:48:56.780Z,3.30
2022-10-22T21:51:25.409Z,5.43
2022-10-22T21:53:53.822Z,4.90
2022-10-22T21:56:29.288Z,3.25
2022-10-22T21:58:57.641Z,11.68
2022-10-22T22:01:26.052Z,4.10
2022-10-22T22:03:54.533Z,4.85
2022-10-22T22:06:29.516Z,4.20
2022-10-22T22:08:59.150Z,6.47
2022-10-22T22:11:29.321Z,15.35
2022-10-22T22:13:58.075Z,4.47
2022-10-22T22:16:28.602Z,4.72
2022-10-22T22:19:00.460Z,5.05
2022-10-22T22:21:30.155Z,7.43
2022-10-22T22:23:58.668Z,4.68
2022-10-22T22:26:31.652Z,5.90
2022-10-22T22:29:00.176Z,4.60
2022-10-22T22:31:29.991Z,3.05
2022-10-22T22:34:01.529Z,4.07
2022-10-22T22:36:32.814Z,5.53
2022-10-22T22:39:01.071Z,4.07
2022-10-22T22:41:30.690Z,5.93
2022-10-22T22:43:58.964Z,6.95
2022-10-22T22:46:27.269Z,5.60
2022-10-22T22:48:55.524Z,3.38
2022-10-22T22:51:23.777Z,2.80
2022-10-22T22:53:52.055Z,3.85
2022-10-22T22:56:21.890Z,4.18
2022-10-22T22:58:51.491Z,6.30
2022-10-22T23:01:20.632Z,6.40
2022-10-22T23:03:49.812Z,2.25
2022-10-22T23:06:18.133Z,3.30
2022-10-22T23:08:49.460Z,5.95
2022-10-22T23:11:20.581Z,7.30
2022-10-22T23:13:48.901Z,6.20
2022-10-22T23:16:19.602Z,4.85
2022-10-22T23:18:48.552Z,5.78
2022-10-22T23:21:17.730Z,2.88
2022-10-22T23:23:46.117Z,4.70
2022-10-22T23:26:14.858Z,3.33
2022-10-22T23:28:51.229Z,3.85
2022-10-22T23:31:21.518Z,3.17
2022-10-22T23:33:51.946Z,4.22
2022-10-22T23:36:20.191Z,4.78
2022-10-22T23:38:49.698Z,8.65
2022-10-22T23:41:20.780Z,4.40
2022-10-22T23:43:49.027Z,4.15
2022-10-22T23:46:17.300Z,2.88
2022-10-22T23:48:46.956Z,3.25
2022-10-22T23:51:16.240Z,4.55
2022-10-22T23:53:47.806Z,3.65
2022-10-22T23:56:17.264Z,5.18
2022-10-22T23:58:45.740Z,5.78
